Time;durP1;ratioP1;P1;durP2;ratioP2;P2;SDS_P1;SDS_P2;PMS_P1;PMS_P2;Temp;Humidity;BMP_temperature;BMP_pressure;BME280_temperature;BME280_humidity;BME280_pressure;Samples;Min_cycle;Max_cycle;Signal;HPM_P1;HPM_P2
2022/07/25 00:01:54;;;;;;;7.97;4.00;;;21.90;99.90;;;;;;5033303;28;20032;-73
2022/07/25 00:04:20;;;;;;;5.75;3.58;;;22.00;99.90;;;;;;5036600;28;20037;-73
2022/07/25 00:06:46;;;;;;;5.57;3.50;;;22.00;99.90;;;;;;5026849;28;20094;-73
2022/07/25 00:09:12;;;;;;;6.00;3.83;;;22.00;99.90;;;;;;5035833;28;20531;-73
2022/07/25 00:11:38;;;;;;;7.80;4.13;;;22.00;99.90;;;;;;5037311;28;20073;-73
2022/07/25 00:14:04;;;;;;;7.50;4.15;;;22.00;99.90;;;;;;5037540;28;20068;-73
2022/07/25 00:16:29;;;;;;;7.28;4.13;;;22.00;99.90;;;;;;5036002;28;20040;-73
2022/07/25 00:18:55;;;;;;;7.20;4.10;;;22.10;99.90;;;;;;5020539;28;20505;-73
2022/07/25 00:21:20;;;;;;;6.40;4.00;;;22.20;99.90;;;;;;5037579;28;20045;-73
2022/07/25 00:23:46;;;;;;;6.63;4.15;;;22.10;99.90;;;;;;5035859;28;20037;-73
2022/07/25 00:26:13;;;;;;;6.93;4.32;;;22.00;99.90;;;;;;5019748;28;20083;-72
2022/07/25 00:28:39;;;;;;;6.50;4.28;;;22.10;99.90;;;;;;5020672;28;20040;-73
2022/07/25 00:31:04;;;;;;;6.85;4.25;;;22.00;99.90;;;;;;5019866;28;20056;-73
2022/07/25 00:33:30;;;;;;;7.93;4.80;;;22.00;99.90;;;;;;5037490;28;20110;-73
2022/07/25 00:35:56;;;;;;;8.02;5.18;;;22.00;99.90;;;;;;5036370;28;20052;-73
2022/07/25 00:38:21;;;;;;;7.13;4.75;;;22.10;99.90;;;;;;5037336;28;20080;-73
2022/07/25 00:40:47;;;;;;;8.65;4.90;;;22.10;99.90;;;;;;5034549;28;20037;-72
2022/07/25 00:43:13;;;;;;;8.63;5.10;;;22.00;99.90;;;;;;5036256;28;20388;-73
2022/07/25 00:45:38;;;;;;;8.25;4.80;;;21.90;99.90;;;;;;5020152;28;20049;-72
2022/07/25 00:48:04;;;;;;;8.10;5.05;;;22.00;99.90;;;;;;5019739;28;20033;-72
2022/07/25 00:50:30;;;;;;;9.73;5.47;;;22.00;99.90;;;;;;5036781;28;20106;-73
2022/07/25 00:52:55;;;;;;;9.18;5.55;;;22.00;99.90;;;;;;5035514;28;20063;-73
2022/07/25 00:55:22;;;;;;;8.85;5.40;;;22.00;99.90;;;;;;5036973;28;20083;-73
2022/07/25 00:57:48;;;;;;;8.02;5.18;;;21.90;99.90;;;;;;5037036;28;20081;-73
2022/07/25 01:00:14;;;;;;;9.40;6.43;;;21.90;99.90;;;;;;5034535;28;20075;-73
2022/07/25 01:02:41;;;;;;;8.10;5.80;;;21.90;99.90;;;;;;5019560;28;20041;-73
2022/07/25 01:05:08;;;;;;;11.32;6.72;;;21.90;99.90;;;;;;5020279;28;20044;-72
2022/07/25 01:07:34;;;;;;;8.35;6.18;;;21.90;99.90;;;;;;5036092;28;20037;-72
2022/07/25 01:10:00;;;;;;;10.15;6.65;;;21.90;99.90;;;;;;5035754;28;20048;-73
2022/07/25 01:12:26;;;;;;;10.07;6.53;;;21.90;99.90;;;;;;5035413;28;20040;-72
2022/07/25 01:14:52;;;;;;;10.30;6.68;;;21.90;99.90;;;;;;5036820;28;20413;-73
2022/07/25 01:17:17;;;;;;;9.82;6.90;;;22.00;99.90;;;;;;5033575;28;21489;-73
2022/07/25 01:19:45;;;;;;;10.43;6.78;;;21.90;99.90;;;;;;5007343;28;20043;-73
2022/07/25 01:22:10;;;;;;;9.68;6.95;;;21.90;99.90;;;;;;5036467;28;20037;-72
2022/07/25 01:24:37;;;;;;;10.18;8.20;;;21.80;99.90;;;;;;5035896;28;20041;-72
2022/07/25 01:27:03;;;;;;;10.68;7.72;;;21.80;99.90;;;;;;5034201;28;20044;-73
2022/07/25 01:29:29;;;;;;;11.70;8.25;;;21.90;99.90;;;;;;5021273;28;20704;-73
2022/07/25 01:31:54;;;;;;;11.10;7.93;;;21.80;99.90;;;;;;5034627;28;20420;-73
2022/07/25 01:34:20;;;;;;;10.00;8.15;;;21.70;99.90;;;;;;5033383;28;20044;-73
2022/07/25 01:36:45;;;;;;;10.85;8.50;;;21.70;99.90;;;;;;5032339;28;20152;-73
2022/07/25 01:39:11;;;;;;;10.23;7.60;;;21.70;99.90;;;;;;5017123;28;20043;-73
2022/07/25 01:41:37;;;;;;;11.15;8.18;;;21.60;99.90;;;;;;5029177;28;20784;-73
2022/07/25 01:44:03;;;;;;;9.63;7.50;;;21.60;99.90;;;;;;5031225;28;20108;-73
2022/07/25 01:46:29;;;;;;;10.85;8.30;;;21.60;99.90;;;;;;5033372;28;20394;-73
2022/07/25 01:48:54;;;;;;;9.80;7.38;;;21.50;99.90;;;;;;5018282;28;20040;-73
2022/07/25 01:51:20;;;;;;;11.50;8.23;;;21.40;99.90;;;;;;5032773;28;20456;-73
2022/07/25 01:53:46;;;;;;;10.80;8.65;;;21.30;99.90;;;;;;5034635;28;20033;-74
2022/07/25 01:56:11;;;;;;;12.00;8.65;;;21.30;99.90;;;;;;5034100;28;20102;-73
2022/07/25 01:58:37;;;;;;;10.98;7.95;;;21.30;99.90;;;;;;5031856;28;20397;-73
2022/07/25 02:01:03;;;;;;;10.38;8.07;;;21.10;99.90;;;;;;5017198;28;20044;-73
2022/07/25 02:03:28;;;;;;;9.80;8.05;;;21.20;99.90;;;;;;5017292;28;20451;-73
2022/07/25 02:05:54;;;;;;;11.60;8.65;;;21.20;99.90;;;;;;5019601;28;20033;-73
2022/07/25 02:08:20;;;;;;;10.07;8.10;;;21.10;99.90;;;;;;5016241;28;20182;-73
2022/07/25 02:10:46;;;;;;;11.55;8.82;;;21.20;99.90;;;;;;5035540;28;20076;-72
2022/07/25 02:13:12;;;;;;;11.02;8.10;;;21.10;99.90;;;;;;5018087;28;20040;-73
2022/07/25 02:15:37;;;;;;;10.55;8.27;;;21.10;99.90;;;;;;5017865;28;20037;-74
2022/07/25 02:18:03;;;;;;;10.32;8.43;;;21.00;99.90;;;;;;5035538;28;20040;-73
2022/07/25 02:20:28;;;;;;;11.27;8.32;;;21.00;99.90;;;;;;5018083;28;20075;-73
2022/07/25 02:22:54;;;;;;;10.30;8.20;;;21.00;99.90;;;;;;5019032;28;20037;-73
2022/07/25 02:25:20;;;;;;;11.20;8.25;;;21.00;99.90;;;;;;5018417;28;20056;-73
2022/07/25 02:27:45;;;;;;;11.98;9.50;;;21.00;99.90;;;;;;5017650;28;20051;-73
2022/07/25 02:30:11;;;;;;;11.20;9.00;;;21.00;99.90;;;;;;5019207;28;20114;-73
2022/07/25 02:32:37;;;;;;;10.55;8.50;;;21.10;99.90;;;;;;5033198;28;20048;-73
2022/07/25 02:35:04;;;;;;;11.35;8.30;;;21.00;99.90;;;;;;5035264;28;20045;-73
2022/07/25 02:37:29;;;;;;;11.43;9.43;;;21.00;99.90;;;;;;5018030;28;20033;-73
2022/07/25 02:39:55;;;;;;;14.45;9.35;;;20.90;99.90;;;;;;5019143;28;20127;-74
2022/07/25 02:42:21;;;;;;;12.07;9.77;;;21.00;99.90;;;;;;5017850;28;20485;-73
2022/07/25 02:44:46;;;;;;;14.27;10.70;;;21.00;99.90;;;;;;5035022;28;20481;-72
2022/07/25 02:47:12;;;;;;;11.10;9.57;;;21.00;99.90;;;;;;5016108;28;20095;-72
2022/07/25 02:49:38;;;;;;;11.98;9.40;;;21.10;99.90;;;;;;5034930;28;20037;-73
2022/07/25 02:52:03;;;;;;;11.02;9.68;;;21.10;99.90;;;;;;5034520;28;20417;-73
2022/07/25 02:54:29;;;;;;;12.32;9.88;;;21.10;99.90;;;;;;5018602;28;20037;-73
2022/07/25 02:56:55;;;;;;;12.77;9.85;;;21.10;99.90;;;;;;5017710;28;20041;-73
2022/07/25 02:59:20;;;;;;;12.65;9.02;;;21.00;99.90;;;;;;5017689;28;20029;-72
2022/07/25 03:01:46;;;;;;;12.50;8.98;;;21.00;99.90;;;;;;5032940;28;20037;-73
2022/07/25 03:04:11;;;;;;;11.90;9.43;;;20.90;99.90;;;;;;5018548;28;20033;-73
2022/07/25 03:06:37;;;;;;;12.98;9.73;;;20.90;99.90;;;;;;5016616;28;20408;-73
2022/07/25 03:09:03;;;;;;;12.00;9.82;;;21.00;99.90;;;;;;5018867;28;20041;-73
2022/07/25 03:11:29;;;;;;;13.90;10.00;;;21.00;99.90;;;;;;5033822;28;20393;-73
2022/07/25 03:13:54;;;;;;;12.27;9.15;;;20.90;99.90;;;;;;5018484;28;20434;-73
2022/07/25 03:16:20;;;;;;;13.63;9.65;;;20.90;99.90;;;;;;5033970;28;20124;-73
2022/07/25 03:18:46;;;;;;;12.45;8.48;;;20.70;99.90;;;;;;5035161;28;20397;-73
2022/07/25 03:21:11;;;;;;;10.98;8.60;;;20.50;99.90;;;;;;5017915;28;20129;-72
2022/07/25 03:23:37;;;;;;;10.10;8.95;;;20.40;99.90;;;;;;5016425;28;20040;-72
2022/07/25 03:26:03;;;;;;;10.93;8.80;;;20.40;99.90;;;;;;5038089;28;20045;-73
2022/07/25 03:28:29;;;;;;;11.48;8.48;;;20.50;99.90;;;;;;5021277;28;20037;-72
2022/07/25 03:30:55;;;;;;;12.43;9.55;;;20.50;99.90;;;;;;5038529;28;20052;-73
2022/07/25 03:33:20;;;;;;;11.82;8.75;;;20.50;99.90;;;;;;5033057;28;20052;-73
2022/07/25 03:35:46;;;;;;;11.85;8.90;;;20.50;99.90;;;;;;5033673;28;20037;-73
2022/07/25 03:38:11;;;;;;;10.88;8.73;;;20.40;99.90;;;;;;5037457;28;20101;-73
2022/07/25 03:40:37;;;;;;;10.60;9.30;;;20.40;99.90;;;;;;5054981;28;20044;-73
2022/07/25 03:43:03;;;;;;;12.80;9.90;;;20.40;99.90;;;;;;5021750;28;20488;-73
2022/07/25 03:45:28;;;;;;;11.45;8.77;;;20.40;99.90;;;;;;5020800;28;20053;-73
2022/07/25 03:47:54;;;;;;;13.63;9.15;;;20.40;99.90;;;;;;5037560;28;20503;-73
2022/07/25 03:50:19;;;;;;;10.77;8.90;;;20.40;99.90;;;;;;5036079;28;20040;-73
2022/07/25 03:52:45;;;;;;;13.15;8.75;;;20.30;99.90;;;;;;5037741;28;20033;-73
2022/07/25 03:55:11;;;;;;;10.80;8.48;;;20.30;99.90;;;;;;5035040;28;20040;-73
2022/07/25 03:57:37;;;;;;;11.68;8.93;;;20.30;99.90;;;;;;5035455;28;20033;-73
2022/07/25 04:00:06;;;;;;;10.73;8.75;;;20.40;99.90;;;;;;5037891;28;20516;-73
2022/07/25 04:02:31;;;;;;;11.48;9.65;;;20.50;99.90;;;;;;5026943;28;20444;-73
2022/07/25 04:04:57;;;;;;;9.77;8.43;;;20.50;99.90;;;;;;5031712;28;20037;-73
2022/07/25 04:07:22;;;;;;;10.63;8.02;;;20.30;99.90;;;;;;5019682;28;20048;-73
2022/07/25 04:09:48;;;;;;;11.38;9.20;;;20.40;99.90;;;;;;5020603;28;20041;-73
2022/07/25 04:12:14;;;;;;;10.82;9.20;;;20.40;99.90;;;;;;5035814;28;20547;-73
2022/07/25 04:14:39;;;;;;;10.40;7.85;;;20.50;99.90;;;;;;5038046;28;20037;-73
2022/07/25 04:17:05;;;;;;;11.52;8.77;;;20.40;99.90;;;;;;5036822;28;20037;-73
2022/07/25 04:19:30;;;;;;;13.18;9.80;;;20.40;99.90;;;;;;5037790;28;20485;-73
2022/07/25 04:21:56;;;;;;;10.90;9.07;;;20.40;99.90;;;;;;5028210;28;20036;-73
2022/07/25 04:24:22;;;;;;;11.50;9.25;;;20.40;99.90;;;;;;5037516;28;20040;-73
2022/07/25 04:26:47;;;;;;;11.85;8.88;;;20.40;99.90;;;;;;5036361;28;20041;-73
2022/07/25 04:29:13;;;;;;;12.50;9.43;;;20.40;99.90;;;;;;5036617;28;20049;-72
2022/07/25 04:31:38;;;;;;;12.05;9.40;;;20.50;99.90;;;;;;5037112;28;20053;-73
2022/07/25 04:34:04;;;;;;;10.63;8.65;;;20.40;99.90;;;;;;5036082;28;20540;-73
2022/07/25 04:36:29;;;;;;;13.00;9.30;;;20.40;99.90;;;;;;5024181;28;20497;-73
2022/07/25 04:38:55;;;;;;;11.48;9.20;;;20.50;99.90;;;;;;5037123;28;20477;-73
2022/07/25 04:41:21;;;;;;;12.02;9.48;;;20.50;99.90;;;;;;5036894;28;20043;-73
2022/07/25 04:43:47;;;;;;;11.65;9.45;;;20.70;99.90;;;;;;5036189;28;20040;-73
2022/07/25 04:46:16;;;;;;;11.25;9.45;;;20.70;99.90;;;;;;5033356;28;20033;-73
2022/07/25 04:48:42;;;;;;;14.50;10.10;;;20.70;99.90;;;;;;5017380;28;20627;-73
2022/07/25 04:51:07;;;;;;;12.57;10.18;;;20.70;99.90;;;;;;5003170;28;20131;-73
2022/07/25 04:53:33;;;;;;;12.65;9.80;;;20.90;99.90;;;;;;5044215;28;20053;-73
2022/07/25 04:55:58;;;;;;;17.05;10.02;;;20.90;99.90;;;;;;5034765;28;20059;-73
2022/07/25 04:58:24;;;;;;;12.48;10.15;;;20.80;99.90;;;;;;5036522;28;20052;-72
2022/07/25 05:00:50;;;;;;;13.70;10.45;;;20.80;99.90;;;;;;5017360;28;20495;-72
2022/07/25 05:03:15;;;;;;;12.75;10.20;;;20.70;99.90;;;;;;5019246;28;20037;-73
2022/07/25 05:05:41;;;;;;;12.23;10.43;;;20.70;99.90;;;;;;5017922;28;20041;-72
2022/07/25 05:08:07;;;;;;;12.63;10.50;;;20.70;99.90;;;;;;5035794;28;20037;-72
2022/07/25 05:10:32;;;;;;;12.93;10.27;;;20.70;99.90;;;;;;5032860;28;20037;-73
2022/07/25 05:12:58;;;;;;;12.27;10.45;;;20.70;99.90;;;;;;5036351;28;20036;-72
2022/07/25 05:15:24;;;;;;;13.38;10.23;;;20.80;99.90;;;;;;5035326;28;20045;-73
2022/07/25 05:17:49;;;;;;;14.50;11.20;;;20.80;99.90;;;;;;5017697;28;20036;-72
2022/07/25 05:20:15;;;;;;;14.63;11.30;;;20.80;99.90;;;;;;5017445;28;20474;-73
2022/07/25 05:22:41;;;;;;;14.02;11.50;;;20.90;99.90;;;;;;5029217;28;20045;-73
2022/07/25 05:25:09;;;;;;;14.20;11.35;;;20.90;99.90;;;;;;5048031;28;20033;-73
2022/07/25 05:27:35;;;;;;;15.13;11.00;;;21.00;99.90;;;;;;5044957;28;20052;-72
2022/07/25 05:30:01;;;;;;;15.02;11.80;;;21.00;99.90;;;;;;5034735;28;20049;-73
2022/07/25 05:32:27;;;;;;;14.65;11.68;;;21.00;99.90;;;;;;5017601;28;20045;-72
2022/07/25 05:34:52;;;;;;;15.70;11.07;;;21.00;99.90;;;;;;5032031;28;20103;-73
2022/07/25 05:37:18;;;;;;;13.32;10.98;;;21.10;99.90;;;;;;5028605;28;20037;-73
2022/07/25 05:39:44;;;;;;;13.48;10.93;;;21.10;99.90;;;;;;5034369;28;20033;-73
2022/07/25 05:42:09;;;;;;;14.95;10.98;;;21.20;99.90;;;;;;5034975;28;20037;-73
2022/07/25 05:44:35;;;;;;;16.23;11.63;;;21.20;99.90;;;;;;5035437;28;20091;-72
2022/07/25 05:47:01;;;;;;;15.50;11.10;;;21.20;99.90;;;;;;5016450;28;20045;-73
2022/07/25 05:49:26;;;;;;;15.90;11.20;;;21.20;99.90;;;;;;5032214;28;20049;-73
2022/07/25 05:51:52;;;;;;;14.45;10.85;;;21.30;99.90;;;;;;5017758;28;20045;-72
2022/07/25 05:54:17;;;;;;;14.32;11.32;;;21.30;99.90;;;;;;5012590;28;20041;-73
2022/07/25 05:56:43;;;;;;;13.45;10.85;;;21.30;99.90;;;;;;5017288;28;20044;-73
2022/07/25 05:59:09;;;;;;;13.95;11.38;;;21.40;99.90;;;;;;5043141;28;20075;-72
2022/07/25 06:01:34;;;;;;;13.95;11.70;;;21.40;99.90;;;;;;5029667;28;20459;-72
2022/07/25 06:04:00;;;;;;;13.32;11.48;;;21.50;99.90;;;;;;5029525;28;20033;-73
2022/07/25 06:06:26;;;;;;;14.88;11.70;;;21.50;99.90;;;;;;5032719;28;20047;-73
2022/07/25 06:08:51;;;;;;;14.32;11.93;;;21.50;99.90;;;;;;5014769;28;20049;-72
2022/07/25 06:11:17;;;;;;;14.50;11.68;;;21.60;99.90;;;;;;5032334;28;20044;-73
2022/07/25 06:13:43;;;;;;;13.65;11.25;;;21.60;99.90;;;;;;5047970;28;20044;-73
2022/07/25 06:16:08;;;;;;;14.27;11.57;;;21.70;99.90;;;;;;5016243;28;20505;-72
2022/07/25 06:18:34;;;;;;;16.13;11.30;;;21.80;99.90;;;;;;5035235;28;20041;-73
2022/07/25 06:20:59;;;;;;;14.65;11.10;;;21.80;99.90;;;;;;5032495;28;20505;-72
2022/07/25 06:23:25;;;;;;;14.13;11.32;;;21.90;99.90;;;;;;5035769;28;20033;-72
2022/07/25 06:25:51;;;;;;;17.05;11.63;;;21.90;99.90;;;;;;5031059;28;20045;-73
2022/07/25 06:28:16;;;;;;;13.63;11.10;;;22.00;99.90;;;;;;5034677;28;20033;-72
2022/07/25 06:30:47;;;;;;;13.85;11.20;;;22.00;99.90;;;;;;5016422;28;20044;-72
2022/07/25 06:33:12;;;;;;;15.60;11.93;;;22.00;99.90;;;;;;5034737;28;20162;-72
2022/07/25 06:35:38;;;;;;;13.95;11.85;;;22.00;99.90;;;;;;5034714;28;20127;-73
2022/07/25 06:38:03;;;;;;;13.77;11.65;;;22.00;99.90;;;;;;5044873;28;20048;-72
2022/07/25 06:40:29;;;;;;;14.05;11.70;;;22.00;99.90;;;;;;5032597;28;20145;-72
2022/07/25 06:42:55;;;;;;;15.52;12.13;;;22.00;99.90;;;;;;5015730;28;20128;-73
2022/07/25 06:45:21;;;;;;;13.55;11.68;;;22.00;99.90;;;;;;5033999;28;20127;-72
2022/07/25 06:47:47;;;;;;;14.60;11.30;;;22.10;99.90;;;;;;5030672;28;20044;-72
2022/07/25 06:50:17;;;;;;;14.70;11.50;;;22.20;99.90;;;;;;5063528;28;20045;-73
2022/07/25 06:52:43;;;;;;;16.90;11.93;;;22.30;99.90;;;;;;5033654;28;20037;-72
2022/07/25 06:55:09;;;;;;;13.20;11.18;;;22.30;99.90;;;;;;5033725;28;20175;-72
2022/07/25 06:57:35;;;;;;;14.50;11.73;;;22.40;99.90;;;;;;5014078;28;20112;-72
2022/07/25 07:00:05;;;;;;;15.10;11.32;;;22.50;99.90;;;;;;5034909;28;20438;-73
2022/07/25 07:02:31;;;;;;;15.00;11.82;;;22.60;99.90;;;;;;5032023;28;20033;-72
2022/07/25 07:04:56;;;;;;;17.00;11.60;;;22.80;99.90;;;;;;5035334;28;20040;-72
2022/07/25 07:07:22;;;;;;;14.70;11.27;;;23.00;99.90;;;;;;5036709;28;20163;-72
2022/07/25 07:09:48;;;;;;;13.85;10.63;;;23.10;99.90;;;;;;5036513;28;20036;-72
2022/07/25 07:12:13;;;;;;;12.70;10.63;;;23.30;99.90;;;;;;5020934;28;20037;-72
2022/07/25 07:14:39;;;;;;;12.55;10.80;;;23.40;99.90;;;;;;5037386;28;20075;-72
2022/07/25 07:17:04;;;;;;;12.77;10.50;;;23.50;99.90;;;;;;5019536;28;20037;-72
2022/07/25 07:19:30;;;;;;;12.65;10.55;;;23.50;99.90;;;;;;5037666;28;20252;-72
2022/07/25 07:21:56;;;;;;;13.57;10.05;;;23.50;99.90;;;;;;5034672;28;20104;-71
2022/07/25 07:24:22;;;;;;;16.92;11.07;;;23.50;99.90;;;;;;5020132;28;20037;-75
2022/07/25 07:26:47;;;;;;;14.13;11.30;;;23.50;99.90;;;;;;5034638;28;20037;-75
2022/07/25 07:29:13;;;;;;;13.77;10.48;;;23.40;99.90;;;;;;5020550;28;20140;-72
2022/07/25 07:31:39;;;;;;;15.82;10.50;;;23.40;99.90;;;;;;5032734;28;20049;-72
2022/07/25 07:34:06;;;;;;;14.45;10.57;;;23.30;99.90;;;;;;5034795;28;20103;-72
2022/07/25 07:36:31;;;;;;;14.25;11.23;;;23.30;99.90;;;;;;5036910;28;20045;-73
2022/07/25 07:38:57;;;;;;;14.20;11.60;;;23.20;99.90;;;;;;5031763;28;20394;-72
2022/07/25 07:41:23;;;;;;;13.30;11.05;;;23.20;99.90;;;;;;5019755;28;20041;-72
2022/07/25 07:43:49;;;;;;;14.68;11.35;;;23.20;99.90;;;;;;5032949;28;20033;-73
2022/07/25 07:46:15;;;;;;;14.90;11.57;;;23.10;99.90;;;;;;5020304;28;20094;-72
2022/07/25 07:48:40;;;;;;;16.80;11.55;;;23.10;99.90;;;;;;5037075;28;20127;-72
2022/07/25 07:51:06;;;;;;;13.63;11.82;;;23.10;99.90;;;;;;5020076;28;20495;-72
2022/07/25 07:56:17;;;;;;;14.07;11.13;;;23.00;99.90;;;;;;5036340;28;20409;-72
2022/07/25 07:58:44;;;;;;;13.63;11.25;;;23.10;99.90;;;;;;5021784;28;20112;-73
2022/07/25 08:01:10;;;;;;;14.95;10.95;;;23.10;99.90;;;;;;5019979;28;20313;-72
2022/07/25 08:03:36;;;;;;;15.35;11.60;;;23.20;99.90;;;;;;5036554;28;20175;-72
2022/07/25 08:06:02;;;;;;;13.48;11.10;;;23.30;99.90;;;;;;5036091;28;20120;-72
2022/07/25 08:08:28;;;;;;;12.88;10.73;;;23.30;99.90;;;;;;5035629;28;20045;-72
2022/07/25 08:10:54;;;;;;;13.95;10.30;;;23.30;99.90;;;;;;5035089;28;20041;-72
2022/07/25 08:13:22;;;;;;;12.75;10.60;;;23.30;99.90;;;;;;5029454;28;20120;-72
2022/07/25 08:15:51;;;;;;;12.65;10.07;;;23.30;99.90;;;;;;5026509;28;20174;-72
2022/07/25 08:18:17;;;;;;;13.23;10.35;;;23.30;99.90;;;;;;5035792;28;20090;-72
2022/07/25 08:20:43;;;;;;;14.23;9.73;;;23.30;99.90;;;;;;5034548;28;20076;-72
2022/07/25 08:23:12;;;;;;;11.45;8.88;;;23.20;99.90;;;;;;5025840;28;20048;-73
2022/07/25 08:25:38;;;;;;;11.68;9.05;;;23.10;99.90;;;;;;5019098;28;20401;-72
2022/07/25 08:28:07;;;;;;;13.85;9.20;;;23.10;99.90;;;;;;5019854;28;20516;-73
2022/07/25 08:30:34;;;;;;;12.45;8.55;;;23.00;99.90;;;;;;5019705;28;20037;-73
2022/07/25 08:33:03;;;;;;;10.60;7.65;;;23.00;99.90;;;;;;5035782;28;20178;-73
2022/07/25 08:35:30;;;;;;;10.20;6.85;;;23.00;99.90;;;;;;5036246;28;20409;-73
2022/07/25 08:37:57;;;;;;;9.27;6.72;;;23.10;99.90;;;;;;5019081;28;20036;-73
2022/07/25 08:40:25;;;;;;;9.68;6.20;;;23.20;99.90;;;;;;5034880;28;20047;-72
2022/07/25 08:42:53;;;;;;;10.95;6.50;;;23.30;99.90;;;;;;5018214;28;20041;-72
2022/07/25 08:45:20;;;;;;;9.82;6.13;;;23.30;99.90;;;;;;5034962;28;20041;-72
2022/07/25 08:47:47;;;;;;;9.82;5.45;;;23.40;99.90;;;;;;5018891;28;20432;-73
2022/07/25 08:50:16;;;;;;;8.38;5.47;;;23.40;99.90;;;;;;5023512;28;20489;-72
2022/07/25 08:52:46;;;;;;;8.68;5.47;;;23.40;99.90;;;;;;5019320;28;20044;-73
2022/07/25 08:55:15;;;;;;;8.57;4.83;;;23.30;99.90;;;;;;5035989;28;20041;-73
2022/07/25 08:57:45;;;;;;;7.97;5.38;;;23.20;99.90;;;;;;5034880;28;20037;-73
2022/07/25 09:00:14;;;;;;;8.70;5.40;;;23.20;99.90;;;;;;5018789;28;20153;-72
2022/07/25 09:02:40;;;;;;;8.95;4.90;;;23.20;99.90;;;;;;5035445;28;20033;-73
2022/07/25 09:05:07;;;;;;;7.32;4.80;;;23.20;99.90;;;;;;5018809;28;20440;-72
2022/07/25 09:07:39;;;;;;;8.63;5.35;;;23.10;99.90;;;;;;5037410;28;20041;-72
2022/07/25 09:10:20;;;;;;;8.10;4.70;;;23.00;99.90;;;;;;5018350;28;20059;-72
2022/07/25 09:13:03;;;;;;;9.50;5.20;;;23.00;99.90;;;;;;5018745;28;20033;-72
2022/07/25 09:15:34;;;;;;;10.23;5.22;;;23.00;99.90;;;;;;5035155;28;20318;-72
2022/07/25 09:18:07;;;;;;;8.10;4.90;;;23.00;99.90;;;;;;5031109;28;20037;-72
2022/07/25 09:20:52;;;;;;;8.77;5.38;;;23.00;99.90;;;;;;5035585;28;20045;-72
2022/07/25 09:23:31;;;;;;;8.27;5.00;;;23.10;99.90;;;;;;5017707;28;20037;-72
2022/07/25 09:26:11;;;;;;;9.65;5.35;;;23.20;99.90;;;;;;5018465;28;20477;-72
2022/07/25 09:28:51;;;;;;;8.45;5.00;;;23.30;99.90;;;;;;5016711;28;20044;-72
2022/07/25 09:31:19;;;;;;;8.13;4.50;;;23.30;99.90;;;;;;5032194;28;20045;-72
2022/07/25 09:33:59;;;;;;;9.25;4.22;;;23.40;99.90;;;;;;5031607;28;20052;-72
2022/07/25 09:36:24;;;;;;;6.95;3.67;;;23.50;99.90;;;;;;5018353;28;20072;-73
2022/07/25 09:38:52;;;;;;;7.35;3.22;;;23.60;99.90;;;;;;5035379;28;20070;-72
2022/07/25 09:41:17;;;;;;;6.32;3.20;;;23.60;99.90;;;;;;5030566;28;20132;-72
2022/07/25 09:43:43;;;;;;;63.55;11.32;;;23.70;99.90;;;;;;5033949;28;20124;-72
2022/07/25 09:46:10;;;;;;;9.10;3.75;;;23.50;99.90;;;;;;5012757;28;20037;-73
2022/07/25 09:48:38;;;;;;;7.80;3.45;;;23.50;99.90;;;;;;5022150;28;20036;-73
2022/07/25 09:51:04;;;;;;;5.80;2.80;;;23.60;99.90;;;;;;5019402;28;20072;-72
2022/07/25 09:53:30;;;;;;;4.95;2.60;;;23.60;99.90;;;;;;5035352;28;20471;-73
2022/07/25 09:55:56;;;;;;;5.40;2.60;;;23.80;99.90;;;;;;5035371;28;20128;-73
2022/07/25 09:58:26;;;;;;;5.30;2.55;;;23.90;99.90;;;;;;5015438;28;20091;-73
2022/07/25 10:01:05;;;;;;;6.20;2.55;;;23.90;99.90;;;;;;5013832;28;20500;-72
2022/07/25 10:03:56;;;;;;;4.78;2.42;;;23.90;99.90;;;;;;5034258;28;20064;-72
2022/07/25 10:06:48;;;;;;;4.38;2.15;;;23.90;99.90;;;;;;5032840;28;20102;-72
2022/07/25 10:09:15;;;;;;;4.97;2.50;;;23.90;99.90;;;;;;5017508;28;20040;-75
2022/07/25 10:12:10;;;;;;;4.72;2.60;;;23.90;99.90;;;;;;5019242;28;20048;-75
2022/07/25 10:14:37;;;;;;;4.10;2.35;;;23.80;99.90;;;;;;5019398;28;20123;-73
2022/07/25 10:17:03;;;;;;;3.42;1.88;;;23.90;99.90;;;;;;5029786;28;20401;-73
2022/07/25 10:19:43;;;;;;;5.18;2.35;;;23.80;99.90;;;;;;5019084;28;20064;-73
2022/07/25 10:22:09;;;;;;;5.95;2.42;;;23.90;99.90;;;;;;5034767;28;20037;-73
2022/07/25 10:24:37;;;;;;;5.10;2.35;;;24.00;99.90;;;;;;5019004;28;20485;-73
2022/07/25 10:27:08;;;;;;;5.28;2.47;;;24.10;99.90;;;;;;5018897;28;20504;-73
2022/07/25 10:29:35;;;;;;;7.75;2.65;;;24.20;99.90;;;;;;5035004;28;20393;-73
2022/07/25 10:32:11;;;;;;;5.38;2.30;;;24.40;99.90;;;;;;5032741;28;20075;-72
2022/07/25 10:34:38;;;;;;;5.43;2.10;;;24.40;99.90;;;;;;5013077;28;20045;-73
2022/07/25 10:37:17;;;;;;;4.00;2.00;;;24.20;99.90;;;;;;5018654;28;20041;-73
2022/07/25 10:39:45;;;;;;;4.30;2.28;;;24.10;99.90;;;;;;5017759;28;20077;-73
2022/07/25 10:42:16;;;;;;;3.55;1.73;;;24.10;99.90;;;;;;5033941;28;20037;-72
2022/07/25 10:44:48;;;;;;;5.78;2.10;;;24.20;99.90;;;;;;5034246;28;20047;-73
2022/07/25 10:47:15;;;;;;;4.97;1.70;;;24.20;99.90;;;;;;5034387;28;20512;-74
2022/07/25 10:49:44;;;;;;;5.32;1.65;;;24.30;99.90;;;;;;5014743;28;20045;-76
2022/07/25 10:52:18;;;;;;;3.58;1.45;;;24.30;99.90;;;;;;5015527;28;20041;-76
2022/07/25 10:54:58;;;;;;;9.30;2.22;;;24.20;99.90;;;;;;5015098;28;20044;-76
2022/07/25 10:57:24;;;;;;;4.63;1.73;;;24.00;99.90;;;;;;5034834;28;20049;-76
2022/07/25 10:59:50;;;;;;;3.80;1.65;;;23.90;99.90;;;;;;5017822;28;20044;-76
2022/07/25 11:02:17;;;;;;;5.70;1.90;;;23.70;99.90;;;;;;5034443;28;20434;-72
2022/07/25 11:04:44;;;;;;;7.70;2.10;;;23.50;99.90;;;;;;5017544;28;20044;-72
2022/07/25 11:07:13;;;;;;;4.90;1.80;;;23.30;99.90;;;;;;5030356;28;20041;-72
2022/07/25 11:09:40;;;;;;;3.85;1.52;;;23.20;99.90;;;;;;5016261;28;20397;-71
2022/07/25 11:12:07;;;;;;;5.15;1.90;;;23.20;99.90;;;;;;5014155;28;20087;-71
2022/07/25 11:14:34;;;;;;;4.28;1.90;;;23.20;99.90;;;;;;5032784;28;20059;-71
2022/07/25 11:17:21;;;;;;;5.72;2.05;;;23.00;99.90;;;;;;5033829;28;20099;-71
2022/07/25 11:19:57;;;;;;;5.68;2.50;;;23.00;99.90;;;;;;5018797;28;20036;-71
2022/07/25 11:22:23;;;;;;;8.63;3.05;;;23.00;99.90;;;;;;5034090;28;20029;-72
2022/07/25 11:24:49;;;;;;;6.32;2.63;;;23.00;99.90;;;;;;5012833;28;20049;-71
2022/07/25 11:27:30;;;;;;;6.70;2.58;;;23.00;99.90;;;;;;5017375;28;20393;-71
2022/07/25 11:30:17;;;;;;;6.35;2.40;;;23.30;99.90;;;;;;5018421;28;20604;-71
2022/07/25 11:32:45;;;;;;;6.00;2.45;;;23.60;99.90;;;;;;5032271;28;20061;-72
2022/07/25 11:35:13;;;;;;;6.32;2.63;;;23.70;99.90;;;;;;5034496;28;20569;-72
2022/07/25 11:37:42;;;;;;;7.45;2.65;;;23.70;99.90;;;;;;5034818;28;20036;-71
2022/07/25 11:40:08;;;;;;;5.95;2.45;;;23.80;99.90;;;;;;5016257;28;20163;-71
2022/07/25 11:42:46;;;;;;;7.82;3.10;;;23.90;99.90;;;;;;5013359;28;20044;-71
2022/07/25 11:45:15;;;;;;;7.45;2.45;;;23.80;99.90;;;;;;5035299;28;20506;-72
2022/07/25 11:47:41;;;;;;;8.75;2.67;;;23.60;99.90;;;;;;5021113;28;20037;-71
2022/07/25 11:50:09;;;;;;;5.97;2.40;;;23.60;99.90;;;;;;5021774;28;20037;-72
2022/07/25 11:52:37;;;;;;;8.43;2.50;;;23.40;99.90;;;;;;5036956;28;20568;-71
2022/07/25 11:55:08;;;;;;;7.85;2.35;;;23.40;99.90;;;;;;5025661;28;20037;-72
2022/07/25 11:57:36;;;;;;;6.37;2.60;;;23.30;99.90;;;;;;5021651;28;20496;-71
2022/07/25 12:00:29;;;;;;;6.75;2.05;;;23.30;99.90;;;;;;5009543;28;20029;-71
2022/07/25 12:03:06;;;;;;;8.43;2.53;;;23.20;99.90;;;;;;5017304;28;20099;-71
2022/07/25 12:05:32;;;;;;;8.20;2.40;;;23.30;99.90;;;;;;5032309;28;20055;-71
2022/07/25 12:08:14;;;;;;;9.07;3.15;;;23.30;99.90;;;;;;5037794;28;20049;-72
2022/07/25 12:10:40;;;;;;;;;;;23.30;99.90;;;;;;5038359;28;20041;-72
2022/07/25 12:13:08;;;;;;;6.78;2.40;;;23.20;99.90;;;;;;5037262;28;19916;-71
2022/07/25 12:15:39;;;;;;;10.25;3.08;;;23.10;99.90;;;;;;5031720;28;20037;-72
2022/07/25 12:18:07;;;;;;;9.15;2.60;;;23.00;99.90;;;;;;5012956;28;20041;-71
2022/07/25 12:20:35;;;;;;;9.68;2.85;;;22.90;99.90;;;;;;5018452;28;20033;-71
2022/07/25 12:23:05;;;;;;;6.90;2.53;;;22.90;99.90;;;;;;5036614;28;20124;-72
2022/07/25 12:25:32;;;;;;;7.53;2.25;;;23.00;99.90;;;;;;5020690;28;20037;-71
2022/07/25 12:27:59;;;;;;;5.13;2.08;;;23.10;99.90;;;;;;5037036;28;20055;-71
2022/07/25 12:30:26;;;;;;;8.32;2.40;;;23.10;99.90;;;;;;5020631;28;20370;-71
2022/07/25 12:32:51;;;;;;;8.52;2.42;;;23.30;99.90;;;;;;5036817;28;20067;-71
2022/07/25 12:35:17;;;;;;;9.32;2.22;;;23.40;99.90;;;;;;5019829;28;20049;-71
2022/07/25 12:37:43;;;;;;;6.00;2.20;;;23.50;99.90;;;;;;5037153;28;20042;-71
2022/07/25 12:40:10;;;;;;;8.68;2.92;;;23.40;99.90;;;;;;5036929;28;20048;-71
2022/07/25 12:42:35;;;;;;;8.55;2.83;;;23.40;99.90;;;;;;5020070;28;20048;-71